createdAt,value
2018-01-11T00:00:53.671Z,96.00
2018-01-11T00:03:21.313Z,96.40
2018-01-11T00:05:48.904Z,96.10
2018-01-11T00:08:16.528Z,96.20
2018-01-11T00:10:44.108Z,96.30
2018-01-11T00:13:12.460Z,96.70
2018-01-11T00:15:40.040Z,96.70
2018-01-11T00:18:07.640Z,96.50
2018-01-11T00:20:35.259Z,96.60
2018-01-11T00:23:03.635Z,97.00
2018-01-11T00:25:31.253Z,97.30
2018-01-11T00:27:58.849Z,97.00
2018-01-11T00:30:26.441Z,97.10
2018-01-11T00:32:54.047Z,97.50
2018-01-11T00:35:21.629Z,97.30
2018-01-11T00:37:49.236Z,97.20
2018-01-11T00:40:28.192Z,97.70
2018-01-11T00:42:55.821Z,97.20
2018-01-11T00:45:23.404Z,97.20
2018-01-11T00:47:50.994Z,97.10
2018-01-11T00:50:18.592Z,97.00
2018-01-11T00:52:46.941Z,96.80
2018-01-11T00:55:14.531Z,96.80
2018-01-11T00:57:42.894Z,96.90
2018-01-11T01:00:10.513Z,96.90
2018-01-11T01:02:38.092Z,96.80
2018-01-11T01:05:05.694Z,96.80
2018-01-11T01:07:33.308Z,96.90
2018-01-11T01:10:00.908Z,97.00
2018-01-11T01:12:29.276Z,97.10
2018-01-11T01:14:56.864Z,97.10
2018-01-11T01:17:24.480Z,96.90
2018-01-11T01:19:52.068Z,96.90
2018-01-11T01:22:20.412Z,96.80
2018-01-11T01:24:47.984Z,96.80
2018-01-11T01:27:15.595Z,97.00
2018-01-11T01:29:43.201Z,96.80
2018-01-11T01:32:10.779Z,96.90
2018-01-11T01:34:38.390Z,97.00
2018-01-11T01:37:05.970Z,97.10
2018-01-11T01:39:33.556Z,97.10
2018-01-11T01:42:01.137Z,97.30
2018-01-11T01:44:29.489Z,97.30
2018-01-11T01:46:57.092Z,97.30
2018-01-11T01:49:25.435Z,97.20
2018-01-11T01:51:53.170Z,97.20
2018-01-11T01:54:20.756Z,97.20
2018-01-11T01:56:48.359Z,97.30
2018-01-11T01:59:15.951Z,97.30
2018-01-11T02:01:43.529Z,97.30
2018-01-11T02:04:11.143Z,97.40
2018-01-11T02:06:38.737Z,97.60
2018-01-11T02:09:06.362Z,97.50
2018-01-11T02:11:33.944Z,97.50
2018-01-11T02:14:01.529Z,97.50
2018-01-11T02:16:29.113Z,97.30
2018-01-11T02:18:56.688Z,97.30
2018-01-11T02:21:25.066Z,97.50
2018-01-11T02:23:53.443Z,97.00
2018-01-11T02:26:21.052Z,97.20
2018-01-11T02:28:48.641Z,97.30
2018-01-11T02:31:16.229Z,97.50
2018-01-11T02:33:44.595Z,97.40
2018-01-11T02:36:12.191Z,97.30
2018-01-11T02:38:39.809Z,97.70
2018-01-11T02:41:07.412Z,97.40
2018-01-11T02:43:35.035Z,97.30
2018-01-11T02:46:02.635Z,97.50
2018-01-11T02:48:30.225Z,97.50
2018-01-11T02:50:57.819Z,97.50
2018-01-11T02:53:25.434Z,97.60
2018-01-11T02:55:53.058Z,97.80
2018-01-11T02:58:21.415Z,97.80
2018-01-11T03:00:49.042Z,97.80
2018-01-11T03:03:16.634Z,97.90
2018-01-11T03:05:44.230Z,97.90
2018-01-11T03:08:12.595Z,97.60
2018-01-11T03:10:40.187Z,97.60
2018-01-11T03:13:07.804Z,97.50
2018-01-11T03:15:35.384Z,97.50
2018-01-11T03:18:03.786Z,97.60
2018-01-11T03:20:31.377Z,97.60
2018-01-11T03:22:58.978Z,97.90
2018-01-11T03:25:26.566Z,98.10
2018-01-11T03:27:54.925Z,98.20
2018-01-11T03:30:23.315Z,98.00
2018-01-11T03:32:51.669Z,98.00
2018-01-11T03:35:19.290Z,98.00
2018-01-11T03:37:46.884Z,98.00
2018-01-11T03:40:14.495Z,98.00
2018-01-11T03:42:42.078Z,98.00
2018-01-11T03:45:09.676Z,98.20
2018-01-11T03:47:37.275Z,98.10
2018-01-11T03:50:04.874Z,98.20
2018-01-11T03:52:32.489Z,98.10
2018-01-11T03:55:00.882Z,97.80
2018-01-11T03:57:28.447Z,97.80
2018-01-11T03:59:56.030Z,97.80
2018-01-11T04:02:23.626Z,98.10
2018-01-11T04:04:51.243Z,98.30
2018-01-11T04:07:18.838Z,98.40
2018-01-11T04:09:46.462Z,98.60
2018-01-11T04:12:14.058Z,98.70
2018-01-11T04:14:41.642Z,98.40
2018-01-11T04:17:09.996Z,98.40
2018-01-11T04:19:37.595Z,98.30
2018-01-11T04:22:05.996Z,98.40
2018-01-11T04:24:33.608Z,98.30
2018-01-11T04:27:02.188Z,98.30
2018-01-11T04:29:29.791Z,98.40
2018-01-11T04:31:57.364Z,98.30
2018-01-11T04:34:24.940Z,98.40
2018-01-11T04:36:52.516Z,98.30
2018-01-11T04:39:20.133Z,98.20
2018-01-11T04:41:47.717Z,98.30
2018-01-11T04:44:15.336Z,98.10
2018-01-11T04:46:43.699Z,98.20
2018-01-11T04:49:11.337Z,98.20
2018-01-11T04:51:38.933Z,98.30
2018-01-11T04:54:06.523Z,98.30
2018-01-11T04:56:34.134Z,98.30
2018-01-11T04:59:01.721Z,98.40
2018-01-11T05:01:30.115Z,98.60
2018-01-11T05:03:57.709Z,98.30
2018-01-11T05:06:25.302Z,98.10
2018-01-11T05:08:52.970Z,98.30
2018-01-11T05:11:20.561Z,98.40
2018-01-11T05:13:48.928Z,98.40
2018-01-11T05:16:17.284Z,98.40
2018-01-11T05:18:44.914Z,98.40
2018-01-11T05:21:12.496Z,98.30
2018-01-11T05:23:40.080Z,98.30
2018-01-11T05:26:07.689Z,98.30
2018-01-11T05:28:35.286Z,98.40
2018-01-11T05:31:02.915Z,98.30
2018-01-11T05:33:30.503Z,98.40
2018-01-11T05:35:58.133Z,98.60
2018-01-11T05:38:25.742Z,98.70
2018-01-11T05:41:00.697Z,98.60
2018-01-11T05:43:29.094Z,98.70
2018-01-11T05:45:56.706Z,98.60
2018-01-11T05:48:24.288Z,98.80
2018-01-11T05:50:52.654Z,99.00
2018-01-11T05:53:20.261Z,99.00
2018-01-11T05:55:47.847Z,99.00
2018-01-11T05:58:15.462Z,99.00
2018-01-11T06:00:43.819Z,99.00
2018-01-11T06:03:11.415Z,99.00
2018-01-11T06:05:39.000Z,99.20
2018-01-11T06:08:06.607Z,99.30
2018-01-11T06:10:34.416Z,99.30
2018-01-11T06:13:02.020Z,99.30
2018-01-11T06:15:29.647Z,99.20
2018-01-11T06:17:57.228Z,99.20
2018-01-11T06:20:30.261Z,99.20
2018-01-11T06:22:58.653Z,99.30
2018-01-11T06:25:26.254Z,99.30
2018-01-11T06:27:54.607Z,99.30
2018-01-11T06:30:22.189Z,99.20
2018-01-11T06:32:49.804Z,99.20
2018-01-11T06:35:18.174Z,98.90
2018-01-11T06:37:46.567Z,99.00
2018-01-11T06:40:14.934Z,99.00
2018-01-11T06:42:43.289Z,98.70
2018-01-11T06:45:10.882Z,98.70
2018-01-11T06:47:39.235Z,98.90
2018-01-11T06:50:06.852Z,98.90
2018-01-11T06:52:34.456Z,98.90
2018-01-11T06:55:02.078Z,99.00
2018-01-11T06:57:29.674Z,99.10
2018-01-11T06:59:57.290Z,99.00
2018-01-11T07:02:24.892Z,98.90
2018-01-11T07:04:52.484Z,98.70
2018-01-11T07:07:20.880Z,98.80
2018-01-11T07:09:48.504Z,98.80
2018-01-11T07:12:16.144Z,98.80
2018-01-11T07:14:43.773Z,98.70
2018-01-11T07:17:11.413Z,98.70
2018-01-11T07:19:39.783Z,99.10
2018-01-11T07:22:08.141Z,99.20
2018-01-11T07:24:36.509Z,99.10
2018-01-11T07:27:04.100Z,99.10
2018-01-11T07:29:31.712Z,98.90
2018-01-11T07:31:59.325Z,98.80
2018-01-11T07:34:27.692Z,98.70
2018-01-11T07:36:55.285Z,98.70
2018-01-11T07:39:22.899Z,98.80
2018-01-11T07:41:50.527Z,98.90
2018-01-11T07:44:18.127Z,99.00
2018-01-11T07:46:45.739Z,98.90
2018-01-11T07:49:13.339Z,98.80
2018-01-11T07:51:40.976Z,98.70
2018-01-11T07:54:08.596Z,98.60
2018-01-11T07:56:36.212Z,98.40
2018-01-11T07:59:03.833Z,98.40
2018-01-11T08:01:32.189Z,98.30
2018-01-11T08:03:59.803Z,98.30
2018-01-11T08:06:27.398Z,98.40
2018-01-11T08:08:55.011Z,98.30
2018-01-11T08:11:22.614Z,98.30
2018-01-11T08:13:50.209Z,98.30
2018-01-11T08:16:18.591Z,98.30
2018-01-11T08:18:46.944Z,98.20
2018-01-11T08:21:14.614Z,98.20
2018-01-11T08:23:42.199Z,98.20
2018-01-11T08:26:10.577Z,98.20
2018-01-11T08:28:38.948Z,98.00
2018-01-11T08:31:21.175Z,97.80
2018-01-11T08:33:48.788Z,97.80
2018-01-11T08:36:16.387Z,97.80
2018-01-11T08:38:44.786Z,97.50
2018-01-11T08:41:12.397Z,97.50
2018-01-11T08:43:39.999Z,97.50
2018-01-11T08:46:07.604Z,97.40
2018-01-11T08:48:35.193Z,97.40
2018-01-11T08:51:02.811Z,97.20
2018-01-11T08:53:30.426Z,97.00
2018-01-11T08:55:58.826Z,96.50
2018-01-11T08:58:26.451Z,96.50
2018-01-11T09:00:54.072Z,96.50
2018-01-11T09:03:21.671Z,96.50
2018-01-11T09:05:49.265Z,96.30
2018-01-11T09:08:16.882Z,96.20
2018-01-11T09:10:44.471Z,96.40
2018-01-11T09:13:12.865Z,96.40
2018-01-11T09:15:41.230Z,96.60
2018-01-11T09:18:09.586Z,96.80
2018-01-11T09:20:37.186Z,96.80
2018-01-11T09:23:04.788Z,96.90
2018-01-11T09:25:32.411Z,96.90
2018-01-11T09:28:00.016Z,96.80
2018-01-11T09:30:27.646Z,96.60
2018-01-11T09:32:55.249Z,96.50
2018-01-11T09:35:22.835Z,96.20
2018-01-11T09:37:51.203Z,95.60
2018-01-11T09:40:18.798Z,95.60
2018-01-11T09:42:46.408Z,94.50
2018-01-11T09:45:14.023Z,94.70
2018-01-11T09:47:41.632Z,94.50
2018-01-11T09:50:09.216Z,94.20
2018-01-11T09:52:36.814Z,93.80
2018-01-11T09:55:04.408Z,93.80
2018-01-11T09:57:31.992Z,93.80
2018-01-11T09:59:59.625Z,93.50
2018-01-11T10:02:27.209Z,93.20
2018-01-11T10:04:54.839Z,93.60
2018-01-11T10:07:22.419Z,93.70
2018-01-11T10:09:50.015Z,93.70
2018-01-11T10:12:22.048Z,93.90
2018-01-11T10:14:49.640Z,93.60
2018-01-11T10:17:18.009Z,93.00
2018-01-11T10:19:46.393Z,92.30
2018-01-11T10:22:14.001Z,92.30
2018-01-11T10:24:41.611Z,92.50
2018-01-11T10:27:09.204Z,92.20
2018-01-11T10:29:36.798Z,92.30
2018-01-11T10:32:04.404Z,92.20
2018-01-11T10:34:32.788Z,91.40
2018-01-11T10:37:00.390Z,91.30
2018-01-11T10:39:28.021Z,91.30
2018-01-11T10:41:57.368Z,91.50
2018-01-11T10:44:24.962Z,91.50
2018-01-11T10:46:52.557Z,91.10
2018-01-11T10:49:20.132Z,91.00
2018-01-11T10:51:47.759Z,91.40
2018-01-11T10:54:16.193Z,91.20
2018-01-11T10:56:43.784Z,91.20
2018-01-11T10:59:11.374Z,91.00
2018-01-11T11:01:44.749Z,91.50
2018-01-11T11:04:13.128Z,90.80
2018-01-11T11:06:41.498Z,90.90
2018-01-11T11:09:09.106Z,90.90
2018-01-11T11:11:36.695Z,91.10
2018-01-11T11:14:04.295Z,91.20
2018-01-11T11:16:32.658Z,91.00
2018-01-11T11:19:00.282Z,90.90
2018-01-11T11:21:27.870Z,90.40
2018-01-11T11:23:55.457Z,90.50
2018-01-11T11:26:23.826Z,90.40
2018-01-11T11:28:51.418Z,90.40
2018-01-11T11:31:19.025Z,90.90
2018-01-11T11:33:46.620Z,90.80
2018-01-11T11:36:15.003Z,92.00
2018-01-11T11:38:43.354Z,91.90
2018-01-11T11:41:10.959Z,91.90
2018-01-11T11:43:38.544Z,91.60
2018-01-11T11:46:06.137Z,91.40
2018-01-11T11:48:33.736Z,91.30
2018-01-11T11:51:09.418Z,91.30
2018-01-11T11:53:37.036Z,91.20
2018-01-11T11:56:05.388Z,90.50
2018-01-11T11:58:33.039Z,90.40
2018-01-11T12:01:00.612Z,90.30
2018-01-11T12:03:28.205Z,90.30
2018-01-11T12:05:56.576Z,89.80
2018-01-11T12:08:24.176Z,89.70
2018-01-11T12:10:51.809Z,89.70
2018-01-11T12:13:20.164Z,88.60
2018-01-11T12:15:47.768Z,88.50
2018-01-11T12:18:15.392Z,87.90
2018-01-11T12:20:43.817Z,87.70
2018-01-11T12:23:11.449Z,87.80
2018-01-11T12:25:39.816Z,86.90
2018-01-11T12:28:08.217Z,87.20
2018-01-11T12:30:36.618Z,87.10
2018-01-11T12:33:04.200Z,87.70
2018-01-11T12:35:31.804Z,87.80
2018-01-11T12:38:00.153Z,89.10
2018-01-11T12:40:27.757Z,89.10
2018-01-11T12:42:55.363Z,89.00
2018-01-11T12:45:22.994Z,88.90
2018-01-11T12:47:50.584Z,88.90
2018-01-11T12:50:18.189Z,89.70
2018-01-11T12:52:46.548Z,90.10
2018-01-11T12:55:14.128Z,90.10
2018-01-11T12:57:42.505Z,90.10
2018-01-11T13:00:10.910Z,90.10
2018-01-11T13:02:38.544Z,90.10
2018-01-11T13:05:06.911Z,89.80
2018-01-11T13:07:34.511Z,89.80
2018-01-11T13:10:02.121Z,89.40
2018-01-11T13:12:29.708Z,88.90
2018-01-11T13:14:58.111Z,89.80
2018-01-11T13:17:25.683Z,89.80
2018-01-11T13:19:53.276Z,88.50
2018-01-11T13:22:20.941Z,88.40
2018-01-11T13:24:48.507Z,87.50
2018-01-11T13:27:16.121Z,87.50
2018-01-11T13:29:43.714Z,87.20
2018-01-11T13:32:11.343Z,87.30
2018-01-11T13:34:38.928Z,86.80
2018-01-11T13:37:06.506Z,87.60
2018-01-11T13:39:34.126Z,87.30
2018-01-11T13:42:01.710Z,86.90
2018-01-11T13:44:29.317Z,86.90
2018-01-11T13:46:56.909Z,86.20
2018-01-11T13:49:24.514Z,86.30
2018-01-11T13:51:52.113Z,86.70
2018-01-11T13:54:20.478Z,86.10
2018-01-11T13:56:48.074Z,86.10
2018-01-11T13:59:15.681Z,86.50
2018-01-11T14:01:43.281Z,86.40
2018-01-11T14:04:11.621Z,87.20
2018-01-11T14:06:39.242Z,87.20
2018-01-11T14:09:06.827Z,87.40
2018-01-11T14:11:34.411Z,86.90
2018-01-11T14:14:02.004Z,87.80
2018-01-11T14:16:30.363Z,89.20
2018-01-11T14:18:58.746Z,88.80
2018-01-11T14:21:27.102Z,89.30
2018-01-11T14:23:54.723Z,89.30
2018-01-11T14:26:22.318Z,89.30
2018-01-11T14:28:49.919Z,89.50
2018-01-11T14:31:20.221Z,90.10
2018-01-11T14:33:47.822Z,90.10
2018-01-11T14:36:15.432Z,90.00
2018-01-11T14:38:43.079Z,90.10
2018-01-11T14:41:10.732Z,90.30
2018-01-11T14:43:38.326Z,90.50
2018-01-11T14:46:05.901Z,90.40
2018-01-11T14:48:34.313Z,90.00
2018-01-11T14:51:01.918Z,90.00
2018-01-11T14:53:29.507Z,89.60
2018-01-11T14:55:57.858Z,89.70
2018-01-11T14:58:29.344Z,89.60
2018-01-11T15:00:57.695Z,90.40
2018-01-11T15:03:25.274Z,90.30
2018-01-11T15:05:53.630Z,90.40
2018-01-11T15:08:21.212Z,90.40
2018-01-11T15:10:49.631Z,90.40
2018-01-11T15:13:17.205Z,90.40
2018-01-11T15:15:44.819Z,90.60
2018-01-11T15:18:13.160Z,90.80
2018-01-11T15:20:40.743Z,90.80
2018-01-11T15:23:08.333Z,91.10
2018-01-11T15:25:35.941Z,91.20
2018-01-11T15:28:03.541Z,91.40
2018-01-11T15:30:31.888Z,91.90
2018-01-11T15:32:59.481Z,91.90
2018-01-11T15:35:27.828Z,92.30
2018-01-11T15:37:55.418Z,92.30
2018-01-11T15:40:23.803Z,92.60
2018-01-11T15:42:52.153Z,93.00
2018-01-11T15:45:27.389Z,93.00
2018-01-11T15:47:54.967Z,93.00
2018-01-11T15:50:22.586Z,93.00
2018-01-11T15:52:50.175Z,93.30
2018-01-11T15:55:17.781Z,93.30
2018-01-11T15:57:46.139Z,93.60
2018-01-11T16:00:14.492Z,93.80
2018-01-11T16:02:42.113Z,93.80
2018-01-11T16:05:09.727Z,94.00
2018-01-11T16:07:37.362Z,94.00
2018-01-11T16:10:04.946Z,94.20
2018-01-11T16:12:34.062Z,94.70
2018-01-11T16:15:02.422Z,94.70
2018-01-11T16:17:30.063Z,94.70
2018-01-11T16:19:57.688Z,95.20
2018-01-11T16:22:25.379Z,95.30
2018-01-11T16:24:53.038Z,95.20
2018-01-11T16:27:20.620Z,95.10
2018-01-11T16:29:48.229Z,95.10
2018-01-11T16:32:16.581Z,95.00
2018-01-11T16:34:49.936Z,95.00
2018-01-11T16:37:17.555Z,95.00
2018-01-11T16:39:45.929Z,95.00
2018-01-11T16:42:14.322Z,94.90
2018-01-11T16:44:41.966Z,94.90
2018-01-11T16:47:09.553Z,94.90
2018-01-11T16:49:37.167Z,94.90
2018-01-11T16:52:04.780Z,94.90
2018-01-11T16:54:36.184Z,94.90
2018-01-11T16:57:03.804Z,94.90
2018-01-11T16:59:31.452Z,94.90
2018-01-11T17:01:59.103Z,94.90
2018-01-11T17:04:27.456Z,95.00
2018-01-11T17:06:55.061Z,95.00
2018-01-11T17:09:22.648Z,95.00
2018-01-11T17:11:50.284Z,95.10
2018-01-11T17:14:17.873Z,95.00
2018-01-11T17:16:47.151Z,95.30
2018-01-11T17:19:14.758Z,95.20
2018-01-11T17:21:42.357Z,95.20
2018-01-11T17:24:09.986Z,95.30
2018-01-11T17:26:37.606Z,95.40
2018-01-11T17:29:05.233Z,95.30
2018-01-11T17:31:34.550Z,95.40
2018-01-11T17:34:02.510Z,95.40
2018-01-11T17:36:31.824Z,95.50
2018-01-11T17:38:59.442Z,95.50
2018-01-11T17:41:27.989Z,95.60
2018-01-11T17:43:55.572Z,95.70
2018-01-11T17:46:23.186Z,95.60
2018-01-11T17:48:50.808Z,95.60
2018-01-11T17:51:21.662Z,95.60
2018-01-11T17:53:50.034Z,96.00
2018-01-11T17:56:17.617Z,96.00
2018-01-11T17:58:45.965Z,96.10
2018-01-11T18:01:13.546Z,96.10
2018-01-11T18:03:41.930Z,96.10
2018-01-11T18:06:10.293Z,96.00
2018-01-11T18:08:37.912Z,96.00
2018-01-11T18:11:05.510Z,96.20
2018-01-11T18:13:33.103Z,95.80
2018-01-11T18:16:01.575Z,95.70
2018-01-11T18:18:29.175Z,95.60
2018-01-11T18:20:57.456Z,95.60
2018-01-11T18:23:25.058Z,95.40
2018-01-11T18:25:52.673Z,95.30
2018-01-11T18:28:20.256Z,95.30
2018-01-11T18:30:49.296Z,95.20
2018-01-11T18:33:17.134Z,95.20
2018-01-11T18:35:44.702Z,95.20
2018-01-11T18:38:12.304Z,95.20
2018-01-11T18:40:39.880Z,95.20
2018-01-11T18:43:07.515Z,95.00
2018-01-11T18:45:35.115Z,95.00
2018-01-11T18:48:02.693Z,95.00
2018-01-11T18:50:30.300Z,95.10
2018-01-11T18:52:58.651Z,95.20
2018-01-11T18:55:26.288Z,95.20
2018-01-11T18:57:53.898Z,95.30
2018-01-11T19:00:21.513Z,95.30
2018-01-11T19:02:49.098Z,95.50
2018-01-11T19:05:16.711Z,95.50
2018-01-11T19:07:44.295Z,95.50
2018-01-11T19:10:11.893Z,95.60
2018-01-11T19:12:39.530Z,95.70
2018-01-11T19:15:07.128Z,95.80
2018-01-11T19:17:35.525Z,96.00
2018-01-11T19:20:03.130Z,95.90
2018-01-11T19:22:30.739Z,95.90
2018-01-11T19:24:59.101Z,95.90
2018-01-11T19:27:26.694Z,95.90
2018-01-11T19:29:54.314Z,95.80
2018-01-11T19:32:21.914Z,95.80
2018-01-11T19:34:50.306Z,95.70
2018-01-11T19:37:17.894Z,95.70
2018-01-11T19:39:45.496Z,95.80
2018-01-11T19:42:13.860Z,95.90
2018-01-11T19:44:41.444Z,95.90
2018-01-11T19:47:09.816Z,95.90
2018-01-11T19:49:38.181Z,95.40
2018-01-11T19:52:05.791Z,95.40
2018-01-11T19:54:33.416Z,95.30
2018-01-11T19:57:01.773Z,95.00
2018-01-11T19:59:29.378Z,95.00
2018-01-11T20:01:56.982Z,94.90
2018-01-11T20:04:24.614Z,94.50
2018-01-11T20:06:52.209Z,94.60
2018-01-11T20:09:19.849Z,94.60
2018-01-11T20:11:47.441Z,94.60
2018-01-11T20:14:15.046Z,94.70
2018-01-11T20:16:42.649Z,94.70
2018-01-11T20:19:10.242Z,94.80
2018-01-11T20:21:37.854Z,94.90
2018-01-11T20:24:05.451Z,94.70
2018-01-11T20:26:33.083Z,94.80
2018-01-11T20:29:00.670Z,95.00
2018-01-11T20:31:28.318Z,95.00
2018-01-11T20:33:55.928Z,95.00
2018-01-11T20:36:24.294Z,95.10
2018-01-11T20:38:52.685Z,95.00
2018-01-11T20:41:21.040Z,95.00
2018-01-11T20:43:48.652Z,95.00
2018-01-11T20:46:16.248Z,95.00
2018-01-11T20:48:43.848Z,94.90
2018-01-11T20:51:12.206Z,95.10
2018-01-11T20:53:39.812Z,95.00
2018-01-11T20:56:15.814Z,95.00
2018-01-11T20:58:43.397Z,95.00
2018-01-11T21:01:11.781Z,95.00
2018-01-11T21:03:40.140Z,95.00
2018-01-11T21:06:07.761Z,95.00
2018-01-11T21:08:35.370Z,95.00
2018-01-11T21:11:05.994Z,95.20
2018-01-11T21:13:33.723Z,94.90
2018-01-11T21:16:01.319Z,94.90
2018-01-11T21:18:28.948Z,94.60
2018-01-11T21:20:56.535Z,94.80
2018-01-11T21:23:31.250Z,94.80
2018-01-11T21:26:06.008Z,94.90
2018-01-11T21:28:52.220Z,94.90
2018-01-11T21:34:31.777Z,95.00
2018-01-11T21:37:00.186Z,94.50
2018-01-11T21:39:27.799Z,94.50
2018-01-11T21:41:55.383Z,94.40
2018-01-11T21:44:23.752Z,94.30
2018-01-11T21:46:51.358Z,94.30
2018-01-11T21:49:18.974Z,94.40
2018-01-11T21:51:46.569Z,94.10
2018-01-11T21:54:14.692Z,94.30
2018-01-11T21:56:42.272Z,94.40
2018-01-11T21:59:09.855Z,94.40
2018-01-11T22:01:37.447Z,94.50
2018-01-11T22:04:05.112Z,94.40
2018-01-11T22:06:32.693Z,94.40
2018-01-11T22:09:00.291Z,94.40
2018-01-11T22:11:28.672Z,94.50
2018-01-11T22:13:57.022Z,94.70
2018-01-11T22:16:24.624Z,94.70
2018-01-11T22:18:52.219Z,94.50
2018-01-11T22:21:19.796Z,94.30
2018-01-11T22:23:47.367Z,94.40
2018-01-11T22:26:14.958Z,94.60
2018-01-11T22:28:43.318Z,94.70
2018-01-11T22:31:10.913Z,94.70
2018-01-11T22:33:38.567Z,94.70
2018-01-11T22:36:06.171Z,94.70
2018-01-11T22:38:33.752Z,94.70
2018-01-11T22:41:01.375Z,94.60
2018-01-11T22:43:28.971Z,94.70
2018-01-11T22:45:56.556Z,94.70
2018-01-11T22:48:24.906Z,94.90
2018-01-11T22:50:52.542Z,94.90
2018-01-11T22:53:20.134Z,94.80
2018-01-11T22:55:47.736Z,94.80
2018-01-11T22:58:15.354Z,94.80
2018-01-11T23:00:42.974Z,95.00
2018-01-11T23:03:10.564Z,94.90
2018-01-11T23:05:38.160Z,94.80
2018-01-11T23:08:06.562Z,94.60
2018-01-11T23:10:34.151Z,94.60
2018-01-11T23:16:12.432Z,94.80
2018-01-11T23:18:40.812Z,94.70
2018-01-11T23:21:09.223Z,94.80
2018-01-11T23:23:36.807Z,94.70
2018-01-11T23:26:05.177Z,94.70
2018-01-11T23:28:32.767Z,94.70
2018-01-11T23:31:00.390Z,94.90
2018-01-11T23:33:28.007Z,94.80
2018-01-11T23:35:55.634Z,94.80
2018-01-11T23:38:23.219Z,94.80
2018-01-11T23:40:50.815Z,94.90
2018-01-11T23:43:19.179Z,94.70
2018-01-11T23:45:47.551Z,94.70
2018-01-11T23:48:15.178Z,94.70
2018-01-11T23:50:46.550Z,94.80
2018-01-11T23:53:14.188Z,95.00
2018-01-11T23:55:41.803Z,95.10
2018-01-11T23:58:10.144Z,95.20
